Tillery, North Carolina
Current Conditions -  °F | °C
As of 3:15 PM on Sunday 23 Nov 2014 (Local Time) from KIXA Reporting Station
Light Rain Light Rain  
Wind Chill: 54°   Ceiling: 4100
Heat Index: 54°   Visibility: 10mi
Dew Point: 50°   Wind: 3mph
Humidity: 88%   Direction: 60°ENE
Pressure: 30.08"   Gusts: NA
Location:  36.25°N, 77.49°W
Report Text: KIXA 232015Z AUTO 06003KT 10SM -RA SCT029 BKN041 OVC120 12/10 A3008 RMK AO2
Loading
Personal Weather Stations






























Interactive Weather Map New forecast layout! Learn more

10-Day Weather Forecast

Advertisements
Track Severe Weather on mobile